sensor_id;sensor_type;location;lat;lon;timestamp;P1;durP1;ratioP1;P2;durP2;ratioP2
50906;SDS011;36882;27.680;85.304;2023-05-27T00:02:32;33.20;;;18.58;;
50906;SDS011;36882;27.680;85.304;2023-05-27T00:05:02;84.65;;;68.07;;
50906;SDS011;36882;27.680;85.304;2023-05-27T00:07:35;57.33;;;42.20;;
50906;SDS011;36882;27.680;85.304;2023-05-27T00:10:05;37.85;;;27.20;;
50906;SDS011;36882;27.680;85.304;2023-05-27T00:12:35;27.20;;;19.65;;
50906;SDS011;36882;27.680;85.304;2023-05-27T00:15:05;31.45;;;18.55;;
50906;SDS011;36882;27.680;85.304;2023-05-27T00:17:36;27.67;;;16.90;;
50906;SDS011;36882;27.680;85.304;2023-05-27T00:20:07;30.58;;;16.95;;
50906;SDS011;36882;27.680;85.304;2023-05-27T00:22:38;24.13;;;16.70;;
50906;SDS011;36882;27.680;85.304;2023-05-27T00:25:08;23.30;;;17.92;;
50906;SDS011;36882;27.680;85.304;2023-05-27T00:27:41;27.95;;;17.77;;
50906;SDS011;36882;27.680;85.304;2023-05-27T00:30:14;25.52;;;17.40;;
50906;SDS011;36882;27.680;85.304;2023-05-27T00:32:44;28.65;;;16.65;;
50906;SDS011;36882;27.680;85.304;2023-05-27T00:35:16;24.38;;;18.75;;
50906;SDS011;36882;27.680;85.304;2023-05-27T00:37:45;30.38;;;18.30;;
50906;SDS011;36882;27.680;85.304;2023-05-27T00:40:19;24.10;;;17.48;;
50906;SDS011;36882;27.680;85.304;2023-05-27T00:42:49;28.27;;;18.50;;
50906;SDS011;36882;27.680;85.304;2023-05-27T00:45:20;31.23;;;19.38;;
50906;SDS011;36882;27.680;85.304;2023-05-27T00:47:50;29.05;;;19.38;;
50906;SDS011;36882;27.680;85.304;2023-05-27T00:50:20;31.50;;;18.90;;
50906;SDS011;36882;27.680;85.304;2023-05-27T00:52:53;32.13;;;18.95;;
50906;SDS011;36882;27.680;85.304;2023-05-27T00:55:26;29.23;;;18.63;;
50906;SDS011;36882;27.680;85.304;2023-05-27T00:57:56;26.80;;;17.95;;
50906;SDS011;36882;27.680;85.304;2023-05-27T01:00:26;24.73;;;15.52;;
50906;SDS011;36882;27.680;85.304;2023-05-27T01:02:57;27.33;;;16.80;;
50906;SDS011;36882;27.680;85.304;2023-05-27T01:05:29;26.58;;;15.95;;
50906;SDS011;36882;27.680;85.304;2023-05-27T01:08:09;22.38;;;14.68;;
50906;SDS011;36882;27.680;85.304;2023-05-27T01:10:43;24.33;;;15.18;;
50906;SDS011;36882;27.680;85.304;2023-05-27T01:15:48;35.20;;;21.95;;
50906;SDS011;36882;27.680;85.304;2023-05-27T01:18:23;32.15;;;18.25;;
50906;SDS011;36882;27.680;85.304;2023-05-27T01:20:54;29.70;;;21.13;;
50906;SDS011;36882;27.680;85.304;2023-05-27T01:23:28;29.33;;;20.63;;
50906;SDS011;36882;27.680;85.304;2023-05-27T01:29:27;32.22;;;21.67;;
50906;SDS011;36882;27.680;85.304;2023-05-27T01:34:28;32.13;;;20.97;;
50906;SDS011;36882;27.680;85.304;2023-05-27T01:37:02;34.42;;;23.42;;
50906;SDS011;36882;27.680;85.304;2023-05-27T01:39:34;36.92;;;22.30;;
50906;SDS011;36882;27.680;85.304;2023-05-27T01:42:09;33.22;;;22.17;;
50906;SDS011;36882;27.680;85.304;2023-05-27T01:44:48;46.90;;;32.60;;
50906;SDS011;36882;27.680;85.304;2023-05-27T01:47:21;36.97;;;25.60;;
50906;SDS011;36882;27.680;85.304;2023-05-27T01:52:20;46.00;;;29.77;;
50906;SDS011;36882;27.680;85.304;2023-05-27T01:55:05;47.63;;;31.67;;
50906;SDS011;36882;27.680;85.304;2023-05-27T01:57:34;37.05;;;30.80;;
50906;SDS011;36882;27.680;85.304;2023-05-27T02:00:04;43.40;;;34.08;;
50906;SDS011;36882;27.680;85.304;2023-05-27T02:02:37;46.08;;;34.53;;
50906;SDS011;36882;27.680;85.304;2023-05-27T02:07:39;50.50;;;32.95;;
50906;SDS011;36882;27.680;85.304;2023-05-27T02:10:09;44.88;;;34.70;;
50906;SDS011;36882;27.680;85.304;2023-05-27T02:12:39;44.47;;;34.10;;
50906;SDS011;36882;27.680;85.304;2023-05-27T02:15:09;41.85;;;32.17;;
50906;SDS011;36882;27.680;85.304;2023-05-27T02:20:08;39.83;;;32.17;;
50906;SDS011;36882;27.680;85.304;2023-05-27T02:22:38;44.08;;;31.23;;
50906;SDS011;36882;27.680;85.304;2023-05-27T02:27:36;49.17;;;31.03;;
50906;SDS011;36882;27.680;85.304;2023-05-27T02:32:35;36.10;;;27.87;;
50906;SDS011;36882;27.680;85.304;2023-05-27T02:37:34;37.28;;;29.02;;
50906;SDS011;36882;27.680;85.304;2023-05-27T02:42:33;39.85;;;29.25;;
50906;SDS011;36882;27.680;85.304;2023-05-27T02:45:03;34.17;;;27.05;;
50906;SDS011;36882;27.680;85.304;2023-05-27T02:47:33;43.35;;;30.15;;
50906;SDS011;36882;27.680;85.304;2023-05-27T02:50:03;38.70;;;28.38;;
50906;SDS011;36882;27.680;85.304;2023-05-27T02:55:02;35.38;;;28.65;;
50906;SDS011;36882;27.680;85.304;2023-05-27T02:57:31;40.20;;;29.50;;
50906;SDS011;36882;27.680;85.304;2023-05-27T03:00:01;40.00;;;27.05;;
50906;SDS011;36882;27.680;85.304;2023-05-27T03:02:32;35.30;;;26.58;;
50906;SDS011;36882;27.680;85.304;2023-05-27T03:05:02;36.58;;;28.92;;
50906;SDS011;36882;27.680;85.304;2023-05-27T03:10:00;26.35;;;20.45;;
50906;SDS011;36882;27.680;85.304;2023-05-27T03:12:30;37.50;;;22.67;;
50906;SDS011;36882;27.680;85.304;2023-05-27T03:17:29;31.00;;;22.35;;
50906;SDS011;36882;27.680;85.304;2023-05-27T03:19:59;36.70;;;24.33;;
50906;SDS011;36882;27.680;85.304;2023-05-27T03:22:31;35.38;;;25.45;;
50906;SDS011;36882;27.680;85.304;2023-05-27T03:25:01;31.83;;;24.08;;
50906;SDS011;36882;27.680;85.304;2023-05-27T03:27:32;22.10;;;17.23;;
50906;SDS011;36882;27.680;85.304;2023-05-27T03:30:03;25.38;;;15.15;;
50906;SDS011;36882;27.680;85.304;2023-05-27T03:32:33;24.88;;;13.55;;
50906;SDS011;36882;27.680;85.304;2023-05-27T03:35:03;20.10;;;14.82;;
50906;SDS011;36882;27.680;85.304;2023-05-27T03:40:02;26.47;;;18.10;;
50906;SDS011;36882;27.680;85.304;2023-05-27T03:45:01;22.52;;;14.70;;
50906;SDS011;36882;27.680;85.304;2023-05-27T03:47:34;25.42;;;17.10;;
50906;SDS011;36882;27.680;85.304;2023-05-27T03:52:33;30.75;;;17.58;;
50906;SDS011;36882;27.680;85.304;2023-05-27T03:57:32;21.25;;;12.50;;
50906;SDS011;36882;27.680;85.304;2023-05-27T04:00:02;22.40;;;15.90;;
50906;SDS011;36882;27.680;85.304;2023-05-27T04:02:41;26.83;;;15.87;;
50906;SDS011;36882;27.680;85.304;2023-05-27T04:05:11;23.48;;;15.75;;
50906;SDS011;36882;27.680;85.304;2023-05-27T04:10:09;22.27;;;15.35;;
50906;SDS011;36882;27.680;85.304;2023-05-27T04:12:39;21.92;;;16.27;;
50906;SDS011;36882;27.680;85.304;2023-05-27T04:17:40;31.13;;;16.42;;
50906;SDS011;36882;27.680;85.304;2023-05-27T04:22:43;29.05;;;19.30;;
50906;SDS011;36882;27.680;85.304;2023-05-27T04:27:41;35.55;;;22.45;;
50906;SDS011;36882;27.680;85.304;2023-05-27T04:30:11;29.75;;;20.88;;
50906;SDS011;36882;27.680;85.304;2023-05-27T04:35:10;34.83;;;21.50;;
50906;SDS011;36882;27.680;85.304;2023-05-27T04:37:40;31.10;;;21.27;;
50906;SDS011;36882;27.680;85.304;2023-05-27T04:40:13;28.27;;;19.95;;
50906;SDS011;36882;27.680;85.304;2023-05-27T04:45:12;32.42;;;16.92;;
50906;SDS011;36882;27.680;85.304;2023-05-27T04:47:42;33.28;;;19.58;;
50906;SDS011;36882;27.680;85.304;2023-05-27T04:50:12;25.92;;;16.90;;
50906;SDS011;36882;27.680;85.304;2023-05-27T04:52:42;27.63;;;14.32;;
50906;SDS011;36882;27.680;85.304;2023-05-27T04:55:14;30.27;;;13.43;;
50906;SDS011;36882;27.680;85.304;2023-05-27T05:00:13;22.60;;;14.03;;
50906;SDS011;36882;27.680;85.304;2023-05-27T05:02:50;21.13;;;13.10;;
50906;SDS011;36882;27.680;85.304;2023-05-27T05:05:29;17.50;;;12.13;;
50906;SDS011;36882;27.680;85.304;2023-05-27T05:07:59;21.63;;;10.18;;
50906;SDS011;36882;27.680;85.304;2023-05-27T05:10:29;23.00;;;9.15;;
50906;SDS011;36882;27.680;85.304;2023-05-27T05:15:28;14.40;;;9.00;;
50906;SDS011;36882;27.680;85.304;2023-05-27T05:17:59;23.33;;;10.07;;
50906;SDS011;36882;27.680;85.304;2023-05-27T05:22:58;16.52;;;9.32;;
50906;SDS011;36882;27.680;85.304;2023-05-27T05:25:28;24.58;;;10.05;;
50906;SDS011;36882;27.680;85.304;2023-05-27T05:28:05;16.00;;;9.10;;
50906;SDS011;36882;27.680;85.304;2023-05-27T05:30:35;12.32;;;7.25;;
50906;SDS011;36882;27.680;85.304;2023-05-27T05:33:06;27.33;;;9.48;;
50906;SDS011;36882;27.680;85.304;2023-05-27T05:38:04;16.83;;;7.88;;
50906;SDS011;36882;27.680;85.304;2023-05-27T05:40:35;21.05;;;9.55;;
50906;SDS011;36882;27.680;85.304;2023-05-27T05:43:05;15.82;;;7.10;;
50906;SDS011;36882;27.680;85.304;2023-05-27T05:48:04;16.30;;;7.72;;
50906;SDS011;36882;27.680;85.304;2023-05-27T05:50:33;14.07;;;6.68;;
50906;SDS011;36882;27.680;85.304;2023-05-27T05:53:04;17.17;;;7.80;;
50906;SDS011;36882;27.680;85.304;2023-05-27T05:58:02;11.50;;;7.55;;
50906;SDS011;36882;27.680;85.304;2023-05-27T06:00:32;15.15;;;7.53;;
50906;SDS011;36882;27.680;85.304;2023-05-27T06:05:31;13.25;;;7.30;;
50906;SDS011;36882;27.680;85.304;2023-05-27T06:10:30;15.55;;;9.05;;
50906;SDS011;36882;27.680;85.304;2023-05-27T06:13:00;19.42;;;9.60;;
50906;SDS011;36882;27.680;85.304;2023-05-27T06:15:30;16.92;;;9.38;;
50906;SDS011;36882;27.680;85.304;2023-05-27T06:18:01;16.85;;;8.40;;
50906;SDS011;36882;27.680;85.304;2023-05-27T06:20:30;14.02;;;7.68;;
50906;SDS011;36882;27.680;85.304;2023-05-27T06:23:00;16.05;;;7.90;;
50906;SDS011;36882;27.680;85.304;2023-05-27T06:25:31;18.30;;;8.00;;
50906;SDS011;36882;27.680;85.304;2023-05-27T06:30:30;15.57;;;8.25;;
50906;SDS011;36882;27.680;85.304;2023-05-27T06:33:00;18.35;;;8.48;;
50906;SDS011;36882;27.680;85.304;2023-05-27T06:35:30;14.57;;;8.65;;
50906;SDS011;36882;27.680;85.304;2023-05-27T06:38:01;17.52;;;8.65;;
50906;SDS011;36882;27.680;85.304;2023-05-27T06:40:31;11.93;;;7.82;;
50906;SDS011;36882;27.680;85.304;2023-05-27T06:43:01;20.63;;;9.30;;
50906;SDS011;36882;27.680;85.304;2023-05-27T06:45:31;16.38;;;8.73;;
50906;SDS011;36882;27.680;85.304;2023-05-27T06:48:00;19.55;;;8.80;;
50906;SDS011;36882;27.680;85.304;2023-05-27T06:50:30;20.23;;;8.25;;
50906;SDS011;36882;27.680;85.304;2023-05-27T06:53:00;12.75;;;8.30;;
50906;SDS011;36882;27.680;85.304;2023-05-27T06:55:32;20.88;;;9.32;;
50906;SDS011;36882;27.680;85.304;2023-05-27T06:58:02;19.08;;;9.85;;
50906;SDS011;36882;27.680;85.304;2023-05-27T07:00:32;15.45;;;7.68;;
50906;SDS011;36882;27.680;85.304;2023-05-27T07:03:02;12.43;;;7.55;;
50906;SDS011;36882;27.680;85.304;2023-05-27T07:05:32;16.60;;;7.03;;
50906;SDS011;36882;27.680;85.304;2023-05-27T07:08:01;16.40;;;7.72;;
50906;SDS011;36882;27.680;85.304;2023-05-27T07:10:31;15.60;;;7.47;;
50906;SDS011;36882;27.680;85.304;2023-05-27T07:13:01;16.77;;;8.90;;
50906;SDS011;36882;27.680;85.304;2023-05-27T07:15:31;15.38;;;8.57;;
50906;SDS011;36882;27.680;85.304;2023-05-27T07:18:01;15.93;;;7.32;;
50906;SDS011;36882;27.680;85.304;2023-05-27T07:20:31;15.93;;;8.23;;
50906;SDS011;36882;27.680;85.304;2023-05-27T07:23:01;19.98;;;8.55;;
50906;SDS011;36882;27.680;85.304;2023-05-27T07:25:32;18.25;;;7.82;;
50906;SDS011;36882;27.680;85.304;2023-05-27T07:28:02;14.23;;;6.20;;
50906;SDS011;36882;27.680;85.304;2023-05-27T07:30:32;12.07;;;6.68;;
50906;SDS011;36882;27.680;85.304;2023-05-27T07:33:03;9.43;;;6.45;;
50906;SDS011;36882;27.680;85.304;2023-05-27T07:35:33;14.05;;;7.07;;
50906;SDS011;36882;27.680;85.304;2023-05-27T07:38:03;14.93;;;8.63;;
50906;SDS011;36882;27.680;85.304;2023-05-27T07:40:33;16.02;;;8.10;;
50906;SDS011;36882;27.680;85.304;2023-05-27T07:43:03;22.75;;;10.30;;
50906;SDS011;36882;27.680;85.304;2023-05-27T07:48:02;19.27;;;10.80;;
50906;SDS011;36882;27.680;85.304;2023-05-27T07:50:33;22.35;;;8.50;;
50906;SDS011;36882;27.680;85.304;2023-05-27T07:53:03;14.13;;;9.15;;
50906;SDS011;36882;27.680;85.304;2023-05-27T07:55:33;20.08;;;9.88;;
50906;SDS011;36882;27.680;85.304;2023-05-27T08:00:32;16.25;;;6.57;;
50906;SDS011;36882;27.680;85.304;2023-05-27T08:03:02;13.13;;;7.50;;
50906;SDS011;36882;27.680;85.304;2023-05-27T08:05:32;13.23;;;6.35;;
50906;SDS011;36882;27.680;85.304;2023-05-27T08:08:02;14.20;;;8.38;;
50906;SDS011;36882;27.680;85.304;2023-05-27T08:13:01;15.63;;;6.63;;
50906;SDS011;36882;27.680;85.304;2023-05-27T08:15:31;11.98;;;7.78;;
50906;SDS011;36882;27.680;85.304;2023-05-27T08:18:01;16.80;;;7.53;;
50906;SDS011;36882;27.680;85.304;2023-05-27T08:20:31;14.43;;;8.15;;
50906;SDS011;36882;27.680;85.304;2023-05-27T08:23:01;17.27;;;10.05;;
50906;SDS011;36882;27.680;85.304;2023-05-27T08:27:59;20.02;;;9.02;;
50906;SDS011;36882;27.680;85.304;2023-05-27T08:30:32;18.52;;;8.18;;
50906;SDS011;36882;27.680;85.304;2023-05-27T08:33:02;14.52;;;7.68;;
50906;SDS011;36882;27.680;85.304;2023-05-27T08:35:32;22.25;;;9.82;;
50906;SDS011;36882;27.680;85.304;2023-05-27T08:38:02;21.35;;;9.63;;
50906;SDS011;36882;27.680;85.304;2023-05-27T08:40:31;15.23;;;8.18;;
50906;SDS011;36882;27.680;85.304;2023-05-27T08:43:02;17.55;;;7.18;;
50906;SDS011;36882;27.680;85.304;2023-05-27T08:45:32;24.02;;;9.07;;
50906;SDS011;36882;27.680;85.304;2023-05-27T08:48:04;20.77;;;8.95;;
50906;SDS011;36882;27.680;85.304;2023-05-27T08:50:36;19.08;;;8.40;;
50906;SDS011;36882;27.680;85.304;2023-05-27T08:53:06;20.85;;;8.05;;
50906;SDS011;36882;27.680;85.304;2023-05-27T08:55:37;19.67;;;8.75;;
50906;SDS011;36882;27.680;85.304;2023-05-27T08:58:06;19.23;;;8.35;;
50906;SDS011;36882;27.680;85.304;2023-05-27T09:00:37;12.73;;;7.05;;
50906;SDS011;36882;27.680;85.304;2023-05-27T09:03:06;13.23;;;7.57;;
50906;SDS011;36882;27.680;85.304;2023-05-27T09:05:36;15.93;;;7.93;;
50906;SDS011;36882;27.680;85.304;2023-05-27T09:08:06;19.05;;;8.75;;
50906;SDS011;36882;27.680;85.304;2023-05-27T09:10:36;14.65;;;7.15;;
50906;SDS011;36882;27.680;85.304;2023-05-27T09:13:07;14.18;;;5.95;;
50906;SDS011;36882;27.680;85.304;2023-05-27T09:15:36;15.75;;;6.65;;
50906;SDS011;36882;27.680;85.304;2023-05-27T09:18:08;20.63;;;7.32;;
50906;SDS011;36882;27.680;85.304;2023-05-27T09:20:41;13.05;;;7.00;;
50906;SDS011;36882;27.680;85.304;2023-05-27T09:23:11;11.57;;;7.28;;
50906;SDS011;36882;27.680;85.304;2023-05-27T09:25:41;18.45;;;7.93;;
50906;SDS011;36882;27.680;85.304;2023-05-27T09:28:11;15.15;;;7.75;;
50906;SDS011;36882;27.680;85.304;2023-05-27T09:30:41;17.40;;;7.68;;
50906;SDS011;36882;27.680;85.304;2023-05-27T09:33:15;13.93;;;9.25;;
50906;SDS011;36882;27.680;85.304;2023-05-27T09:35:51;19.38;;;8.55;;
50906;SDS011;36882;27.680;85.304;2023-05-27T09:38:21;17.23;;;7.55;;
50906;SDS011;36882;27.680;85.304;2023-05-27T09:40:51;15.82;;;7.63;;
50906;SDS011;36882;27.680;85.304;2023-05-27T09:43:21;21.15;;;9.15;;
50906;SDS011;36882;27.680;85.304;2023-05-27T09:45:57;22.73;;;10.25;;
50906;SDS011;36882;27.680;85.304;2023-05-27T09:48:31;19.80;;;10.90;;
50906;SDS011;36882;27.680;85.304;2023-05-27T09:51:01;15.48;;;10.38;;
50906;SDS011;36882;27.680;85.304;2023-05-27T09:53:32;27.13;;;10.98;;
50906;SDS011;36882;27.680;85.304;2023-05-27T09:56:03;21.00;;;10.25;;
50906;SDS011;36882;27.680;85.304;2023-05-27T09:58:34;22.88;;;10.45;;
50906;SDS011;36882;27.680;85.304;2023-05-27T10:03:36;18.98;;;10.95;;
50906;SDS011;36882;27.680;85.304;2023-05-27T10:06:07;20.00;;;12.43;;
50906;SDS011;36882;27.680;85.304;2023-05-27T10:08:37;17.08;;;10.75;;
50906;SDS011;36882;27.680;85.304;2023-05-27T10:11:12;19.77;;;10.52;;
50906;SDS011;36882;27.680;85.304;2023-05-27T10:13:42;17.35;;;10.90;;
50906;SDS011;36882;27.680;85.304;2023-05-27T10:16:20;27.73;;;11.68;;
50906;SDS011;36882;27.680;85.304;2023-05-27T10:18:54;21.27;;;10.20;;
50906;SDS011;36882;27.680;85.304;2023-05-27T10:21:28;20.10;;;11.73;;
50906;SDS011;36882;27.680;85.304;2023-05-27T10:24:02;33.22;;;12.55;;
50906;SDS011;36882;27.680;85.304;2023-05-27T10:26:39;27.73;;;13.02;;
50906;SDS011;36882;27.680;85.304;2023-05-27T10:31:49;25.20;;;12.65;;
50906;SDS011;36882;27.680;85.304;2023-05-27T10:34:19;25.65;;;11.15;;
50906;SDS011;36882;27.680;85.304;2023-05-27T10:36:58;24.90;;;11.75;;
50906;SDS011;36882;27.680;85.304;2023-05-27T10:39:28;20.17;;;11.57;;
50906;SDS011;36882;27.680;85.304;2023-05-27T10:41:59;27.85;;;11.88;;
50906;SDS011;36882;27.680;85.304;2023-05-27T10:44:34;18.60;;;11.23;;
50906;SDS011;36882;27.680;85.304;2023-05-27T10:47:04;25.10;;;11.77;;
50906;SDS011;36882;27.680;85.304;2023-05-27T10:49:39;15.80;;;9.70;;
50906;SDS011;36882;27.680;85.304;2023-05-27T10:52:09;27.98;;;11.00;;
50906;SDS011;36882;27.680;85.304;2023-05-27T10:54:45;21.58;;;13.20;;
50906;SDS011;36882;27.680;85.304;2023-05-27T10:57:16;24.83;;;13.32;;
50906;SDS011;36882;27.680;85.304;2023-05-27T10:59:53;21.10;;;13.52;;
50906;SDS011;36882;27.680;85.304;2023-05-27T11:02:28;19.27;;;12.70;;
50906;SDS011;36882;27.680;85.304;2023-05-27T11:05:08;22.77;;;13.73;;
50906;SDS011;36882;27.680;85.304;2023-05-27T11:07:39;24.83;;;12.95;;
50906;SDS011;36882;27.680;85.304;2023-05-27T11:10:09;20.08;;;13.98;;
50906;SDS011;36882;27.680;85.304;2023-05-27T11:12:42;28.00;;;15.90;;
50906;SDS011;36882;27.680;85.304;2023-05-27T11:15:17;30.58;;;17.75;;
50906;SDS011;36882;27.680;85.304;2023-05-27T11:17:48;38.75;;;18.52;;
50906;SDS011;36882;27.680;85.304;2023-05-27T11:20:18;33.78;;;17.77;;
50906;SDS011;36882;27.680;85.304;2023-05-27T11:22:49;30.00;;;17.35;;
50906;SDS011;36882;27.680;85.304;2023-05-27T11:25:19;27.02;;;14.15;;
50906;SDS011;36882;27.680;85.304;2023-05-27T11:27:49;24.38;;;13.75;;
50906;SDS011;36882;27.680;85.304;2023-05-27T11:32:48;19.57;;;11.93;;
50906;SDS011;36882;27.680;85.304;2023-05-27T11:37:51;24.85;;;11.52;;
50906;SDS011;36882;27.680;85.304;2023-05-27T11:40:21;24.67;;;12.30;;
50906;SDS011;36882;27.680;85.304;2023-05-27T11:42:51;25.20;;;11.60;;
50906;SDS011;36882;27.680;85.304;2023-05-27T11:45:21;24.88;;;14.50;;
50906;SDS011;36882;27.680;85.304;2023-05-27T11:50:22;21.90;;;14.30;;
50906;SDS011;36882;27.680;85.304;2023-05-27T11:55:21;39.40;;;17.67;;
50906;SDS011;36882;27.680;85.304;2023-05-27T11:57:51;28.40;;;17.52;;
50906;SDS011;36882;27.680;85.304;2023-05-27T12:00:21;30.10;;;18.35;;
50906;SDS011;36882;27.680;85.304;2023-05-27T12:02:51;28.90;;;17.23;;
50906;SDS011;36882;27.680;85.304;2023-05-27T12:05:21;23.33;;;14.57;;
50906;SDS011;36882;27.680;85.304;2023-05-27T12:08:00;20.08;;;13.27;;
50906;SDS011;36882;27.680;85.304;2023-05-27T12:10:31;25.63;;;15.88;;
50906;SDS011;36882;27.680;85.304;2023-05-27T12:13:04;28.67;;;17.55;;
50906;SDS011;36882;27.680;85.304;2023-05-27T12:15:34;32.15;;;18.02;;
50906;SDS011;36882;27.680;85.304;2023-05-27T12:18:07;28.80;;;17.90;;
50906;SDS011;36882;27.680;85.304;2023-05-27T12:20:37;26.10;;;15.07;;
50906;SDS011;36882;27.680;85.304;2023-05-27T12:23:07;25.88;;;17.45;;
50906;SDS011;36882;27.680;85.304;2023-05-27T12:25:36;25.48;;;15.88;;
50906;SDS011;36882;27.680;85.304;2023-05-27T12:28:07;27.58;;;16.88;;
50906;SDS011;36882;27.680;85.304;2023-05-27T12:30:37;29.80;;;16.77;;
50906;SDS011;36882;27.680;85.304;2023-05-27T12:33:08;24.27;;;16.27;;
50906;SDS011;36882;27.680;85.304;2023-05-27T12:35:38;27.88;;;16.98;;
50906;SDS011;36882;27.680;85.304;2023-05-27T12:38:08;27.35;;;15.95;;
50906;SDS011;36882;27.680;85.304;2023-05-27T12:40:38;22.02;;;15.38;;
50906;SDS011;36882;27.680;85.304;2023-05-27T12:43:08;29.73;;;16.90;;
50906;SDS011;36882;27.680;85.304;2023-05-27T12:45:38;21.05;;;15.52;;
50906;SDS011;36882;27.680;85.304;2023-05-27T12:48:08;24.85;;;15.82;;
50906;SDS011;36882;27.680;85.304;2023-05-27T12:50:38;29.35;;;16.42;;
50906;SDS011;36882;27.680;85.304;2023-05-27T12:53:08;38.38;;;16.35;;
50906;SDS011;36882;27.680;85.304;2023-05-27T12:55:38;33.00;;;16.75;;
50906;SDS011;36882;27.680;85.304;2023-05-27T12:58:08;30.60;;;15.43;;
50906;SDS011;36882;27.680;85.304;2023-05-27T13:00:37;33.65;;;15.73;;
50906;SDS011;36882;27.680;85.304;2023-05-27T13:03:07;30.05;;;14.52;;
50906;SDS011;36882;27.680;85.304;2023-05-27T13:05:38;29.90;;;15.93;;
50906;SDS011;36882;27.680;85.304;2023-05-27T13:08:08;28.38;;;16.02;;
50906;SDS011;36882;27.680;85.304;2023-05-27T13:10:38;26.33;;;15.50;;
50906;SDS011;36882;27.680;85.304;2023-05-27T13:13:09;26.27;;;15.93;;
50906;SDS011;36882;27.680;85.304;2023-05-27T13:15:38;30.30;;;16.90;;
50906;SDS011;36882;27.680;85.304;2023-05-27T13:18:09;31.85;;;15.98;;
50906;SDS011;36882;27.680;85.304;2023-05-27T13:20:40;32.72;;;17.90;;
50906;SDS011;36882;27.680;85.304;2023-05-27T13:23:10;36.75;;;18.65;;
50906;SDS011;36882;27.680;85.304;2023-05-27T13:25:40;39.53;;;18.33;;
50906;SDS011;36882;27.680;85.304;2023-05-27T13:28:10;36.38;;;20.42;;
50906;SDS011;36882;27.680;85.304;2023-05-27T13:30:39;34.97;;;19.67;;
50906;SDS011;36882;27.680;85.304;2023-05-27T13:33:09;31.75;;;19.83;;
50906;SDS011;36882;27.680;85.304;2023-05-27T13:38:09;34.20;;;19.33;;
50906;SDS011;36882;27.680;85.304;2023-05-27T13:40:42;32.35;;;19.48;;
50906;SDS011;36882;27.680;85.304;2023-05-27T13:43:12;40.95;;;23.40;;
50906;SDS011;36882;27.680;85.304;2023-05-27T13:45:42;38.75;;;23.05;;
50906;SDS011;36882;27.680;85.304;2023-05-27T13:48:14;34.13;;;23.05;;
50906;SDS011;36882;27.680;85.304;2023-05-27T13:50:43;39.10;;;21.83;;
50906;SDS011;36882;27.680;85.304;2023-05-27T13:53:18;35.70;;;23.65;;
50906;SDS011;36882;27.680;85.304;2023-05-27T13:55:48;50.53;;;23.05;;
50906;SDS011;36882;27.680;85.304;2023-05-27T13:58:19;37.42;;;24.58;;
50906;SDS011;36882;27.680;85.304;2023-05-27T14:00:49;26.35;;;15.90;;
50906;SDS011;36882;27.680;85.304;2023-05-27T14:05:48;20.88;;;14.00;;
50906;SDS011;36882;27.680;85.304;2023-05-27T14:08:19;17.45;;;12.52;;
50906;SDS011;36882;27.680;85.304;2023-05-27T14:10:49;18.20;;;11.93;;
50906;SDS011;36882;27.680;85.304;2023-05-27T14:13:18;16.25;;;11.95;;
50906;SDS011;36882;27.680;85.304;2023-05-27T14:18:18;28.50;;;15.07;;
50906;SDS011;36882;27.680;85.304;2023-05-27T14:20:48;17.85;;;12.18;;
50906;SDS011;36882;27.680;85.304;2023-05-27T14:23:19;19.80;;;14.02;;
50906;SDS011;36882;27.680;85.304;2023-05-27T14:25:48;19.10;;;12.63;;
50906;SDS011;36882;27.680;85.304;2023-05-27T14:28:19;18.23;;;11.20;;
50906;SDS011;36882;27.680;85.304;2023-05-27T14:30:49;21.17;;;12.90;;
50906;SDS011;36882;27.680;85.304;2023-05-27T14:33:18;16.50;;;13.45;;
50906;SDS011;36882;27.680;85.304;2023-05-27T14:35:49;18.88;;;13.77;;
50906;SDS011;36882;27.680;85.304;2023-05-27T14:38:19;20.80;;;13.88;;
50906;SDS011;36882;27.680;85.304;2023-05-27T14:40:52;19.48;;;15.15;;
50906;SDS011;36882;27.680;85.304;2023-05-27T14:43:21;24.58;;;12.73;;
50906;SDS011;36882;27.680;85.304;2023-05-27T14:45:51;18.52;;;13.25;;
50906;SDS011;36882;27.680;85.304;2023-05-27T14:48:21;17.17;;;11.65;;
50906;SDS011;36882;27.680;85.304;2023-05-27T14:50:51;15.18;;;10.57;;
50906;SDS011;36882;27.680;85.304;2023-05-27T14:53:21;13.30;;;8.68;;
50906;SDS011;36882;27.680;85.304;2023-05-27T14:55:50;18.77;;;11.45;;
50906;SDS011;36882;27.680;85.304;2023-05-27T14:58:21;13.38;;;10.02;;
50906;SDS011;36882;27.680;85.304;2023-05-27T15:00:51;16.02;;;10.45;;
50906;SDS011;36882;27.680;85.304;2023-05-27T15:03:21;19.40;;;11.40;;
50906;SDS011;36882;27.680;85.304;2023-05-27T15:05:53;21.90;;;12.07;;
50906;SDS011;36882;27.680;85.304;2023-05-27T15:08:26;18.05;;;11.13;;
50906;SDS011;36882;27.680;85.304;2023-05-27T15:10:59;20.55;;;10.57;;
50906;SDS011;36882;27.680;85.304;2023-05-27T15:13:29;27.80;;;11.75;;
50906;SDS011;36882;27.680;85.304;2023-05-27T15:15:58;20.95;;;12.50;;
50906;SDS011;36882;27.680;85.304;2023-05-27T15:18:28;15.40;;;11.27;;
50906;SDS011;36882;27.680;85.304;2023-05-27T15:20:59;20.10;;;12.05;;
50906;SDS011;36882;27.680;85.304;2023-05-27T15:23:28;18.63;;;12.48;;
50906;SDS011;36882;27.680;85.304;2023-05-27T15:25:58;16.15;;;11.43;;
50906;SDS011;36882;27.680;85.304;2023-05-27T15:28:28;13.63;;;10.90;;
50906;SDS011;36882;27.680;85.304;2023-05-27T15:30:58;18.92;;;11.98;;
50906;SDS011;36882;27.680;85.304;2023-05-27T15:33:28;23.88;;;12.43;;
50906;SDS011;36882;27.680;85.304;2023-05-27T15:35:57;18.95;;;13.73;;
50906;SDS011;36882;27.680;85.304;2023-05-27T15:38:27;14.45;;;11.80;;
50906;SDS011;36882;27.680;85.304;2023-05-27T15:40:57;17.15;;;12.00;;
50906;SDS011;36882;27.680;85.304;2023-05-27T15:43:27;25.30;;;13.25;;
50906;SDS011;36882;27.680;85.304;2023-05-27T15:45:57;25.38;;;12.75;;
50906;SDS011;36882;27.680;85.304;2023-05-27T15:48:30;16.95;;;11.45;;
50906;SDS011;36882;27.680;85.304;2023-05-27T15:51:01;18.88;;;13.10;;
50906;SDS011;36882;27.680;85.304;2023-05-27T15:53:31;19.38;;;12.85;;
50906;SDS011;36882;27.680;85.304;2023-05-27T15:58:30;17.60;;;11.05;;
50906;SDS011;36882;27.680;85.304;2023-05-27T16:00:59;19.75;;;12.30;;
50906;SDS011;36882;27.680;85.304;2023-05-27T16:03:29;17.73;;;11.85;;
50906;SDS011;36882;27.680;85.304;2023-05-27T16:05:59;19.63;;;11.73;;
50906;SDS011;36882;27.680;85.304;2023-05-27T16:08:30;17.92;;;11.15;;
50906;SDS011;36882;27.680;85.304;2023-05-27T16:11:00;17.40;;;11.98;;
50906;SDS011;36882;27.680;85.304;2023-05-27T16:13:30;18.13;;;11.95;;
50906;SDS011;36882;27.680;85.304;2023-05-27T16:16:02;20.25;;;13.30;;
50906;SDS011;36882;27.680;85.304;2023-05-27T16:18:35;20.35;;;12.80;;
50906;SDS011;36882;27.680;85.304;2023-05-27T16:21:05;19.77;;;12.75;;
50906;SDS011;36882;27.680;85.304;2023-05-27T16:26:04;22.00;;;14.60;;
50906;SDS011;36882;27.680;85.304;2023-05-27T16:28:34;17.25;;;13.52;;
50906;SDS011;36882;27.680;85.304;2023-05-27T16:31:04;19.15;;;14.38;;
50906;SDS011;36882;27.680;85.304;2023-05-27T16:33:33;25.17;;;14.60;;